sensor_id;sensor_type;location;lat;lon;timestamp;pressure;altitude;pressure_sealevel;temperature;humidity
77469;BME280;68840;50.272;12.818;2023-11-18T00:00:12;96512;;;4.1;63.3
77469;BME280;68840;50.272;12.818;2023-11-18T00:02:05;96513;;;4.1;63.3
77469;BME280;68840;50.272;12.818;2023-11-18T00:04:10;96516;;;4.1;63.3
77469;BME280;68840;50.272;12.818;2023-11-18T00:06:05;96519;;;4.1;63.0
77469;BME280;68840;50.272;12.818;2023-11-18T00:08:06;96521;;;4.1;63.4
77469;BME280;68840;50.272;12.818;2023-11-18T00:10:06;96528;;;4.1;63.0
77469;BME280;68840;50.272;12.818;2023-11-18T00:12:06;96533;;;4.1;63.0
77469;BME280;68840;50.272;12.818;2023-11-18T00:14:05;96534;;;4.2;63.4
77469;BME280;68840;50.272;12.818;2023-11-18T00:16:05;96536;;;4.2;63.2
77469;BME280;68840;50.272;12.818;2023-11-18T00:18:06;96538;;;4.2;63.1
77469;BME280;68840;50.272;12.818;2023-11-18T00:20:10;96539;;;4.2;63.0
77469;BME280;68840;50.272;12.818;2023-11-18T00:22:06;96543;;;4.2;63.0
77469;BME280;68840;50.272;12.818;2023-11-18T00:24:08;96546;;;4.2;63.0
77469;BME280;68840;50.272;12.818;2023-11-18T00:26:07;96548;;;4.2;63.0
77469;BME280;68840;50.272;12.818;2023-11-18T00:28:07;96549;;;4.2;63.1
77469;BME280;68840;50.272;12.818;2023-11-18T00:30:08;96551;;;4.2;63.2
77469;BME280;68840;50.272;12.818;2023-11-18T00:32:07;96553;;;4.2;62.9
77469;BME280;68840;50.272;12.818;2023-11-18T00:34:05;96557;;;4.2;63.0
77469;BME280;68840;50.272;12.818;2023-11-18T00:36:07;96560;;;4.2;63.3
77469;BME280;68840;50.272;12.818;2023-11-18T00:38:05;96562;;;4.3;63.2
77469;BME280;68840;50.272;12.818;2023-11-18T00:40:07;96564;;;4.3;62.8
77469;BME280;68840;50.272;12.818;2023-11-18T00:42:05;96567;;;4.3;62.6
77469;BME280;68840;50.272;12.818;2023-11-18T00:44:08;96568;;;4.3;62.5
77469;BME280;68840;50.272;12.818;2023-11-18T00:46:05;96566;;;4.3;62.2
77469;BME280;68840;50.272;12.818;2023-11-18T00:48:05;96563;;;4.3;62.4
77469;BME280;68840;50.272;12.818;2023-11-18T00:50:08;96557;;;4.3;62.1
77469;BME280;68840;50.272;12.818;2023-11-18T00:52:05;96561;;;4.2;62.1
77469;BME280;68840;50.272;12.818;2023-11-18T00:54:06;96562;;;4.2;62.3
77469;BME280;68840;50.272;12.818;2023-11-18T00:56:12;96560;;;4.2;62.5
77469;BME280;68840;50.272;12.818;2023-11-18T00:58:05;96560;;;4.2;62.7
77469;BME280;68840;50.272;12.818;2023-11-18T01:00:06;96556;;;4.2;62.6
77469;BME280;68840;50.272;12.818;2023-11-18T01:02:05;96561;;;4.2;62.4
77469;BME280;68840;50.272;12.818;2023-11-18T01:04:05;96565;;;4.2;62.4
77469;BME280;68840;50.272;12.818;2023-11-18T01:06:06;96562;;;4.2;62.5
77469;BME280;68840;50.272;12.818;2023-11-18T01:08:05;96563;;;4.2;62.6
77469;BME280;68840;50.272;12.818;2023-11-18T01:10:06;96562;;;4.2;62.8
77469;BME280;68840;50.272;12.818;2023-11-18T01:12:08;96566;;;4.3;62.8
77469;BME280;68840;50.272;12.818;2023-11-18T01:14:06;96568;;;4.3;63.0
77469;BME280;68840;50.272;12.818;2023-11-18T01:16:05;96569;;;4.3;62.7
77469;BME280;68840;50.272;12.818;2023-11-18T01:18:06;96572;;;4.3;63.2
77469;BME280;68840;50.272;12.818;2023-11-18T01:20:11;96571;;;4.3;63.0
77469;BME280;68840;50.272;12.818;2023-11-18T01:22:05;96569;;;4.3;62.6
77469;BME280;68840;50.272;12.818;2023-11-18T01:24:06;96568;;;4.3;62.6
77469;BME280;68840;50.272;12.818;2023-11-18T01:26:05;96573;;;4.4;62.4
77469;BME280;68840;50.272;12.818;2023-11-18T01:28:05;96569;;;4.4;62.5
77469;BME280;68840;50.272;12.818;2023-11-18T01:30:06;96571;;;4.4;62.5
77469;BME280;68840;50.272;12.818;2023-11-18T01:32:09;96574;;;4.4;62.4
77469;BME280;68840;50.272;12.818;2023-11-18T01:34:05;96576;;;4.4;62.2
77469;BME280;68840;50.272;12.818;2023-11-18T01:36:06;96582;;;4.4;62.6
77469;BME280;68840;50.272;12.818;2023-11-18T01:38:05;96586;;;4.4;62.9
77469;BME280;68840;50.272;12.818;2023-11-18T01:40:07;96586;;;4.4;62.9
77469;BME280;68840;50.272;12.818;2023-11-18T01:42:05;96584;;;4.4;62.6
77469;BME280;68840;50.272;12.818;2023-11-18T01:44:05;96579;;;4.5;62.5
77469;BME280;68840;50.272;12.818;2023-11-18T01:46:10;96576;;;4.4;62.2
77469;BME280;68840;50.272;12.818;2023-11-18T01:48:05;96580;;;4.4;61.7
77469;BME280;68840;50.272;12.818;2023-11-18T01:50:07;96582;;;4.4;62.0
77469;BME280;68840;50.272;12.818;2023-11-18T01:52:07;96585;;;4.3;62.2
77469;BME280;68840;50.272;12.818;2023-11-18T01:54:07;96590;;;4.3;62.3
77469;BME280;68840;50.272;12.818;2023-11-18T01:56:06;96589;;;4.3;62.4
77469;BME280;68840;50.272;12.818;2023-11-18T01:58:08;96591;;;4.3;62.6
77469;BME280;68840;50.272;12.818;2023-11-18T02:00:06;96592;;;4.3;62.9
77469;BME280;68840;50.272;12.818;2023-11-18T02:02:05;96593;;;4.3;62.8
77469;BME280;68840;50.272;12.818;2023-11-18T02:04:07;96592;;;4.3;62.8
77469;BME280;68840;50.272;12.818;2023-11-18T02:06:06;96590;;;4.3;62.8
77469;BME280;68840;50.272;12.818;2023-11-18T02:08:07;96588;;;4.3;62.5
77469;BME280;68840;50.272;12.818;2023-11-18T02:10:08;96590;;;4.3;62.6
77469;BME280;68840;50.272;12.818;2023-11-18T02:12:11;96589;;;4.3;62.9
77469;BME280;68840;50.272;12.818;2023-11-18T02:14:12;96589;;;4.3;63.1
77469;BME280;68840;50.272;12.818;2023-11-18T02:16:07;96589;;;4.4;62.7
77469;BME280;68840;50.272;12.818;2023-11-18T02:18:09;96590;;;4.4;62.3
77469;BME280;68840;50.272;12.818;2023-11-18T02:20:16;96589;;;4.4;62.2
77469;BME280;68840;50.272;12.818;2023-11-18T02:22:07;96590;;;4.3;62.1
77469;BME280;68840;50.272;12.818;2023-11-18T02:24:06;96592;;;4.3;61.8
77469;BME280;68840;50.272;12.818;2023-11-18T02:26:05;96591;;;4.3;61.8
77469;BME280;68840;50.272;12.818;2023-11-18T02:28:05;96591;;;4.2;61.9
77469;BME280;68840;50.272;12.818;2023-11-18T02:30:12;96589;;;4.2;61.7
77469;BME280;68840;50.272;12.818;2023-11-18T02:32:11;96590;;;4.2;61.8
77469;BME280;68840;50.272;12.818;2023-11-18T02:34:10;96596;;;4.1;61.9
77469;BME280;68840;50.272;12.818;2023-11-18T02:36:10;96598;;;4.1;61.9
77469;BME280;68840;50.272;12.818;2023-11-18T02:38:07;96596;;;4.0;62.2
77469;BME280;68840;50.272;12.818;2023-11-18T02:40:08;96598;;;4.0;62.4
77469;BME280;68840;50.272;12.818;2023-11-18T02:42:08;96603;;;3.9;62.5
77469;BME280;68840;50.272;12.818;2023-11-18T02:44:10;96606;;;3.9;62.8
77469;BME280;68840;50.272;12.818;2023-11-18T02:46:06;96604;;;3.8;62.9
77469;BME280;68840;50.272;12.818;2023-11-18T02:48:06;96604;;;3.8;63.2
77469;BME280;68840;50.272;12.818;2023-11-18T02:50:10;96600;;;3.8;63.4
77469;BME280;68840;50.272;12.818;2023-11-18T02:52:05;96599;;;3.9;63.3
77469;BME280;68840;50.272;12.818;2023-11-18T02:54:06;96604;;;3.9;63.4
77469;BME280;68840;50.272;12.818;2023-11-18T02:56:07;96604;;;3.9;63.6
77469;BME280;68840;50.272;12.818;2023-11-18T02:58:05;96604;;;3.9;63.6
77469;BME280;68840;50.272;12.818;2023-11-18T03:00:12;96607;;;3.9;63.6
77469;BME280;68840;50.272;12.818;2023-11-18T03:02:06;96610;;;3.9;63.4
77469;BME280;68840;50.272;12.818;2023-11-18T03:04:06;96610;;;4.0;63.4
77469;BME280;68840;50.272;12.818;2023-11-18T03:06:06;96611;;;4.0;63.4
77469;BME280;68840;50.272;12.818;2023-11-18T03:08:06;96614;;;4.0;63.3
77469;BME280;68840;50.272;12.818;2023-11-18T03:10:11;96611;;;4.0;63.3
77469;BME280;68840;50.272;12.818;2023-11-18T03:12:07;96611;;;4.0;63.1
77469;BME280;68840;50.272;12.818;2023-11-18T03:14:05;96613;;;4.0;63.5
77469;BME280;68840;50.272;12.818;2023-11-18T03:16:07;96613;;;4.0;63.6
77469;BME280;68840;50.272;12.818;2023-11-18T03:18:05;96616;;;4.0;63.4
77469;BME280;68840;50.272;12.818;2023-11-18T03:20:08;96616;;;4.0;63.5
77469;BME280;68840;50.272;12.818;2023-11-18T03:22:05;96616;;;3.9;63.5
77469;BME280;68840;50.272;12.818;2023-11-18T03:24:06;96618;;;3.9;63.5
77469;BME280;68840;50.272;12.818;2023-11-18T03:26:05;96623;;;4.0;63.6
77469;BME280;68840;50.272;12.818;2023-11-18T03:28:06;96626;;;4.0;64.1
77469;BME280;68840;50.272;12.818;2023-11-18T03:30:07;96629;;;4.0;63.6
77469;BME280;68840;50.272;12.818;2023-11-18T03:32:05;96631;;;4.0;63.8
77469;BME280;68840;50.272;12.818;2023-11-18T03:34:05;96628;;;4.0;64.0
77469;BME280;68840;50.272;12.818;2023-11-18T03:36:06;96630;;;4.1;63.8
77469;BME280;68840;50.272;12.818;2023-11-18T03:38:05;96633;;;4.1;64.1
77469;BME280;68840;50.272;12.818;2023-11-18T03:40:05;96637;;;4.1;63.8
77469;BME280;68840;50.272;12.818;2023-11-18T03:42:05;96636;;;4.1;63.7
77469;BME280;68840;50.272;12.818;2023-11-18T03:44:05;96637;;;4.1;63.5
77469;BME280;68840;50.272;12.818;2023-11-18T03:46:07;96639;;;4.1;63.2
77469;BME280;68840;50.272;12.818;2023-11-18T03:48:06;96641;;;4.1;63.1
77469;BME280;68840;50.272;12.818;2023-11-18T03:50:08;96644;;;4.2;63.3
77469;BME280;68840;50.272;12.818;2023-11-18T03:52:05;96647;;;4.2;63.4
77469;BME280;68840;50.272;12.818;2023-11-18T03:54:08;96649;;;4.2;63.5
77469;BME280;68840;50.272;12.818;2023-11-18T03:56:06;96648;;;4.2;63.6
77469;BME280;68840;50.272;12.818;2023-11-18T03:58:05;96647;;;4.2;63.7
77469;BME280;68840;50.272;12.818;2023-11-18T04:00:06;96643;;;4.2;63.6
77469;BME280;68840;50.272;12.818;2023-11-18T04:02:06;96646;;;4.3;63.4
77469;BME280;68840;50.272;12.818;2023-11-18T04:04:05;96645;;;4.3;63.6
77469;BME280;68840;50.272;12.818;2023-11-18T04:06:08;96648;;;4.3;63.2
77469;BME280;68840;50.272;12.818;2023-11-18T04:08:06;96647;;;4.3;63.4
77469;BME280;68840;50.272;12.818;2023-11-18T04:10:06;96652;;;4.3;63.0
77469;BME280;68840;50.272;12.818;2023-11-18T04:12:06;96653;;;4.3;63.1
77469;BME280;68840;50.272;12.818;2023-11-18T04:14:05;96653;;;4.3;63.5
77469;BME280;68840;50.272;12.818;2023-11-18T04:16:06;96654;;;4.3;63.5
77469;BME280;68840;50.272;12.818;2023-11-18T04:18:06;96655;;;4.3;63.3
77469;BME280;68840;50.272;12.818;2023-11-18T04:20:11;96657;;;4.4;63.4
77469;BME280;68840;50.272;12.818;2023-11-18T04:22:05;96658;;;4.4;63.4
77469;BME280;68840;50.272;12.818;2023-11-18T04:24:06;96661;;;4.4;63.3
77469;BME280;68840;50.272;12.818;2023-11-18T04:26:07;96664;;;4.4;63.3
77469;BME280;68840;50.272;12.818;2023-11-18T04:28:05;96665;;;4.4;63.2
77469;BME280;68840;50.272;12.818;2023-11-18T04:30:06;96663;;;4.5;63.1
77469;BME280;68840;50.272;12.818;2023-11-18T04:32:06;96665;;;4.5;63.2
77469;BME280;68840;50.272;12.818;2023-11-18T04:34:05;96670;;;4.5;62.9
77469;BME280;68840;50.272;12.818;2023-11-18T04:36:06;96672;;;4.5;63.1
77469;BME280;68840;50.272;12.818;2023-11-18T04:38:05;96674;;;4.5;62.7
77469;BME280;68840;50.272;12.818;2023-11-18T04:40:09;96673;;;4.5;63.0
77469;BME280;68840;50.272;12.818;2023-11-18T04:42:05;96672;;;4.5;63.1
77469;BME280;68840;50.272;12.818;2023-11-18T04:44:05;96677;;;4.5;63.4
77469;BME280;68840;50.272;12.818;2023-11-18T04:46:05;96678;;;4.5;63.2
77469;BME280;68840;50.272;12.818;2023-11-18T04:48:05;96679;;;4.5;63.0
77469;BME280;68840;50.272;12.818;2023-11-18T04:50:07;96682;;;4.5;62.9
77469;BME280;68840;50.272;12.818;2023-11-18T04:52:06;96682;;;4.6;63.2
77469;BME280;68840;50.272;12.818;2023-11-18T04:54:07;96679;;;4.6;63.2
77469;BME280;68840;50.272;12.818;2023-11-18T04:56:09;96677;;;4.6;63.1
77469;BME280;68840;50.272;12.818;2023-11-18T04:58:06;96679;;;4.6;62.9
77469;BME280;68840;50.272;12.818;2023-11-18T05:00:10;96679;;;4.6;63.0
77469;BME280;68840;50.272;12.818;2023-11-18T05:02:06;96681;;;4.6;62.9
77469;BME280;68840;50.272;12.818;2023-11-18T05:04:08;96680;;;4.6;63.1
77469;BME280;68840;50.272;12.818;2023-11-18T05:06:05;96678;;;4.6;62.7
77469;BME280;68840;50.272;12.818;2023-11-18T05:08:07;96678;;;4.6;62.8
77469;BME280;68840;50.272;12.818;2023-11-18T05:10:08;96679;;;4.6;62.7
77469;BME280;68840;50.272;12.818;2023-11-18T05:12:06;96681;;;4.6;63.0
77469;BME280;68840;50.272;12.818;2023-11-18T05:14:07;96683;;;4.6;62.8
77469;BME280;68840;50.272;12.818;2023-11-18T05:16:06;96681;;;4.6;62.7
77469;BME280;68840;50.272;12.818;2023-11-18T05:18:08;96682;;;4.6;62.7
77469;BME280;68840;50.272;12.818;2023-11-18T05:20:08;96679;;;4.6;63.2
77469;BME280;68840;50.272;12.818;2023-11-18T05:22:06;96676;;;4.7;62.6
77469;BME280;68840;50.272;12.818;2023-11-18T05:24:06;96678;;;4.7;62.9
77469;BME280;68840;50.272;12.818;2023-11-18T05:26:05;96679;;;4.7;63.0
77469;BME280;68840;50.272;12.818;2023-11-18T05:28:08;96674;;;4.7;62.8
77469;BME280;68840;50.272;12.818;2023-11-18T05:30:06;96676;;;4.7;63.0
77469;BME280;68840;50.272;12.818;2023-11-18T05:32:05;96677;;;4.7;62.9
77469;BME280;68840;50.272;12.818;2023-11-18T05:34:05;96677;;;4.7;62.8
77469;BME280;68840;50.272;12.818;2023-11-18T05:36:06;96674;;;4.7;62.7
77469;BME280;68840;50.272;12.818;2023-11-18T05:38:06;96674;;;4.7;62.5
77469;BME280;68840;50.272;12.818;2023-11-18T05:40:06;96675;;;4.7;62.6
77469;BME280;68840;50.272;12.818;2023-11-18T05:42:05;96675;;;4.7;62.3
77469;BME280;68840;50.272;12.818;2023-11-18T05:44:08;96676;;;4.7;62.4
77469;BME280;68840;50.272;12.818;2023-11-18T05:46:14;96681;;;4.7;62.4
77469;BME280;68840;50.272;12.818;2023-11-18T05:48:05;96684;;;4.7;62.4
77469;BME280;68840;50.272;12.818;2023-11-18T05:50:07;96686;;;4.7;62.5
77469;BME280;68840;50.272;12.818;2023-11-18T05:52:07;96689;;;4.7;62.6
77469;BME280;68840;50.272;12.818;2023-11-18T05:54:06;96692;;;4.7;62.7
77469;BME280;68840;50.272;12.818;2023-11-18T05:56:06;96694;;;4.7;62.9
77469;BME280;68840;50.272;12.818;2023-11-18T05:58:05;96693;;;4.7;62.6
77469;BME280;68840;50.272;12.818;2023-11-18T06:00:08;96690;;;4.7;62.7
77469;BME280;68840;50.272;12.818;2023-11-18T06:02:05;96690;;;4.7;62.7
77469;BME280;68840;50.272;12.818;2023-11-18T06:04:08;96685;;;4.7;62.7
77469;BME280;68840;50.272;12.818;2023-11-18T06:06:06;96682;;;4.7;63.2
77469;BME280;68840;50.272;12.818;2023-11-18T06:08:05;96681;;;4.7;63.0
77469;BME280;68840;50.272;12.818;2023-11-18T06:10:07;96681;;;4.7;62.8
77469;BME280;68840;50.272;12.818;2023-11-18T06:12:08;96684;;;4.7;62.9
77469;BME280;68840;50.272;12.818;2023-11-18T06:14:08;96690;;;4.7;63.4
77469;BME280;68840;50.272;12.818;2023-11-18T06:16:05;96687;;;4.8;63.3
77469;BME280;68840;50.272;12.818;2023-11-18T06:18:05;96686;;;4.8;63.0
77469;BME280;68840;50.272;12.818;2023-11-18T06:20:07;96687;;;4.8;62.7
77469;BME280;68840;50.272;12.818;2023-11-18T06:22:05;96690;;;4.7;62.9
77469;BME280;68840;50.272;12.818;2023-11-18T06:24:05;96687;;;4.7;62.8
77469;BME280;68840;50.272;12.818;2023-11-18T06:26:05;96687;;;4.7;63.1
77469;BME280;68840;50.272;12.818;2023-11-18T06:28:07;96690;;;4.7;63.2
77469;BME280;68840;50.272;12.818;2023-11-18T06:30:06;96694;;;4.6;63.4
77469;BME280;68840;50.272;12.818;2023-11-18T06:32:05;96696;;;4.6;63.1
77469;BME280;68840;50.272;12.818;2023-11-18T06:34:05;96694;;;4.6;63.2
77469;BME280;68840;50.272;12.818;2023-11-18T06:36:07;96695;;;4.6;63.3
77469;BME280;68840;50.272;12.818;2023-11-18T06:38:05;96697;;;4.6;63.2
77469;BME280;68840;50.272;12.818;2023-11-18T06:40:16;96697;;;4.6;63.3
77469;BME280;68840;50.272;12.818;2023-11-18T06:42:11;96698;;;4.6;63.4
77469;BME280;68840;50.272;12.818;2023-11-18T06:44:12;96697;;;4.6;63.4
77469;BME280;68840;50.272;12.818;2023-11-18T06:46:10;96695;;;4.6;63.5
77469;BME280;68840;50.272;12.818;2023-11-18T06:48:06;96693;;;4.7;63.4
77469;BME280;68840;50.272;12.818;2023-11-18T06:50:07;96694;;;4.7;63.1
77469;BME280;68840;50.272;12.818;2023-11-18T06:52:05;96694;;;4.6;63.0
77469;BME280;68840;50.272;12.818;2023-11-18T06:54:08;96695;;;4.6;63.1
77469;BME280;68840;50.272;12.818;2023-11-18T06:56:06;96696;;;4.6;63.0
77469;BME280;68840;50.272;12.818;2023-11-18T06:58:06;96697;;;4.6;63.2
77469;BME280;68840;50.272;12.818;2023-11-18T07:00:08;96698;;;4.6;62.9
77469;BME280;68840;50.272;12.818;2023-11-18T07:02:06;96698;;;4.5;63.3
77469;BME280;68840;50.272;12.818;2023-11-18T07:04:08;96700;;;4.5;63.5
77469;BME280;68840;50.272;12.818;2023-11-18T07:06:06;96699;;;4.5;63.7
77469;BME280;68840;50.272;12.818;2023-11-18T07:08:07;96700;;;4.5;63.7
77469;BME280;68840;50.272;12.818;2023-11-18T07:10:06;96704;;;4.6;64.0
77469;BME280;68840;50.272;12.818;2023-11-18T07:12:06;96706;;;4.6;63.8
77469;BME280;68840;50.272;12.818;2023-11-18T07:14:05;96708;;;4.6;64.3
77469;BME280;68840;50.272;12.818;2023-11-18T07:16:05;96709;;;4.6;64.2
77469;BME280;68840;50.272;12.818;2023-11-18T07:18:06;96713;;;4.6;64.5
77469;BME280;68840;50.272;12.818;2023-11-18T07:20:06;96721;;;4.6;64.2
77469;BME280;68840;50.272;12.818;2023-11-18T07:22:06;96724;;;4.7;64.5
77469;BME280;68840;50.272;12.818;2023-11-18T07:24:06;96728;;;4.7;64.0
77469;BME280;68840;50.272;12.818;2023-11-18T07:26:05;96728;;;4.7;64.4
77469;BME280;68840;50.272;12.818;2023-11-18T07:28:08;96729;;;4.8;64.3
77469;BME280;68840;50.272;12.818;2023-11-18T07:30:10;96735;;;4.8;64.1
77469;BME280;68840;50.272;12.818;2023-11-18T07:32:05;96734;;;4.9;64.6
77469;BME280;68840;50.272;12.818;2023-11-18T07:34:05;96735;;;4.9;64.3
77469;BME280;68840;50.272;12.818;2023-11-18T07:36:11;96735;;;4.9;64.0
77469;BME280;68840;50.272;12.818;2023-11-18T07:38:07;96736;;;5.0;64.0
77469;BME280;68840;50.272;12.818;2023-11-18T07:40:06;96736;;;5.0;63.8
77469;BME280;68840;50.272;12.818;2023-11-18T07:42:05;96734;;;5.0;63.3
77469;BME280;68840;50.272;12.818;2023-11-18T07:44:08;96736;;;5.0;63.5
77469;BME280;68840;50.272;12.818;2023-11-18T07:46:07;96740;;;5.0;63.5
77469;BME280;68840;50.272;12.818;2023-11-18T07:48:06;96743;;;5.0;63.1
77469;BME280;68840;50.272;12.818;2023-11-18T07:50:06;96746;;;5.0;63.4
77469;BME280;68840;50.272;12.818;2023-11-18T07:52:05;96748;;;5.0;63.5
77469;BME280;68840;50.272;12.818;2023-11-18T07:54:05;96751;;;5.1;63.8
77469;BME280;68840;50.272;12.818;2023-11-18T07:56:08;96752;;;5.1;63.6
77469;BME280;68840;50.272;12.818;2023-11-18T07:58:11;96750;;;5.1;63.7
77469;BME280;68840;50.272;12.818;2023-11-18T08:00:09;96752;;;5.1;63.8
77469;BME280;68840;50.272;12.818;2023-11-18T08:02:09;96754;;;5.1;63.9
77469;BME280;68840;50.272;12.818;2023-11-18T08:04:07;96752;;;5.1;63.7
77469;BME280;68840;50.272;12.818;2023-11-18T08:06:06;96753;;;5.2;63.1
77469;BME280;68840;50.272;12.818;2023-11-18T08:08:07;96754;;;5.2;63.9
77469;BME280;68840;50.272;12.818;2023-11-18T08:10:06;96761;;;5.2;64.0
77469;BME280;68840;50.272;12.818;2023-11-18T08:12:06;96765;;;5.2;64.1
77469;BME280;68840;50.272;12.818;2023-11-18T08:14:05;96769;;;5.2;64.6
77469;BME280;68840;50.272;12.818;2023-11-18T08:16:07;96769;;;5.2;63.8
77469;BME280;68840;50.272;12.818;2023-11-18T08:18:06;96769;;;5.3;63.5
77469;BME280;68840;50.272;12.818;2023-11-18T08:20:14;96767;;;5.3;64.1
77469;BME280;68840;50.272;12.818;2023-11-18T08:22:06;96767;;;5.4;63.5
77469;BME280;68840;50.272;12.818;2023-11-18T08:24:07;96767;;;5.4;64.3
77469;BME280;68840;50.272;12.818;2023-11-18T08:26:05;96766;;;5.4;64.5
77469;BME280;68840;50.272;12.818;2023-11-18T08:28:07;96770;;;5.5;63.4
77469;BME280;68840;50.272;12.818;2023-11-18T08:30:11;96769;;;5.6;63.8
77469;BME280;68840;50.272;12.818;2023-11-18T08:32:06;96767;;;5.6;63.4
77469;BME280;68840;50.272;12.818;2023-11-18T08:34:05;96766;;;5.7;64.1
77469;BME280;68840;50.272;12.818;2023-11-18T08:36:08;96766;;;5.8;63.5
77469;BME280;68840;50.272;12.818;2023-11-18T08:38:07;96764;;;5.9;62.9
77469;BME280;68840;50.272;12.818;2023-11-18T08:40:07;96763;;;5.9;63.2
77469;BME280;68840;50.272;12.818;2023-11-18T08:42:07;96761;;;5.9;62.8
77469;BME280;68840;50.272;12.818;2023-11-18T08:44:06;96765;;;6.0;62.5
77469;BME280;68840;50.272;12.818;2023-11-18T08:46:07;96767;;;6.0;62.8
77469;BME280;68840;50.272;12.818;2023-11-18T08:48:07;96768;;;6.1;62.9
77469;BME280;68840;50.272;12.818;2023-11-18T08:50:12;96767;;;6.0;61.5
77469;BME280;68840;50.272;12.818;2023-11-18T08:52:10;96769;;;6.0;61.5
77469;BME280;68840;50.272;12.818;2023-11-18T08:54:22;96770;;;6.0;62.3
77469;BME280;68840;50.272;12.818;2023-11-18T08:56:05;96770;;;6.0;62.9
77469;BME280;68840;50.272;12.818;2023-11-18T08:58:15;96770;;;6.0;63.0
77469;BME280;68840;50.272;12.818;2023-11-18T09:00:36;96764;;;6.1;62.5
77469;BME280;68840;50.272;12.818;2023-11-18T09:02:07;96763;;;6.1;62.2
77469;BME280;68840;50.272;12.818;2023-11-18T09:04:05;96761;;;6.2;62.9
77469;BME280;68840;50.272;12.818;2023-11-18T09:06:17;96758;;;6.2;61.9
77469;BME280;68840;50.272;12.818;2023-11-18T09:08:06;96760;;;6.2;62.2
77469;BME280;68840;50.272;12.818;2023-11-18T09:10:05;96762;;;6.3;63.2
77469;BME280;68840;50.272;12.818;2023-11-18T09:12:08;96765;;;6.3;62.2
77469;BME280;68840;50.272;12.818;2023-11-18T09:14:07;96767;;;6.4;62.7
77469;BME280;68840;50.272;12.818;2023-11-18T09:16:08;96768;;;6.4;62.7
77469;BME280;68840;50.272;12.818;2023-11-18T09:18:10;96769;;;6.5;61.8
77469;BME280;68840;50.272;12.818;2023-11-18T09:20:06;96771;;;6.5;61.3
77469;BME280;68840;50.272;12.818;2023-11-18T09:22:06;96776;;;6.6;62.1
77469;BME280;68840;50.272;12.818;2023-11-18T09:24:08;96780;;;6.6;60.5
77469;BME280;68840;50.272;12.818;2023-11-18T09:26:07;96781;;;6.6;61.5
77469;BME280;68840;50.272;12.818;2023-11-18T09:28:05;96784;;;6.6;62.1
77469;BME280;68840;50.272;12.818;2023-11-18T09:30:13;96787;;;6.6;61.4
77469;BME280;68840;50.272;12.818;2023-11-18T09:32:06;96794;;;6.6;60.2
77469;BME280;68840;50.272;12.818;2023-11-18T09:34:06;96796;;;6.6;60.3
77469;BME280;68840;50.272;12.818;2023-11-18T09:36:07;96793;;;6.6;61.2
77469;BME280;68840;50.272;12.818;2023-11-18T09:38:06;96794;;;6.6;61.2
77469;BME280;68840;50.272;12.818;2023-11-18T09:40:13;96796;;;6.6;61.0
77469;BME280;68840;50.272;12.818;2023-11-18T09:42:08;96797;;;6.6;59.9
77469;BME280;68840;50.272;12.818;2023-11-18T09:44:06;96794;;;6.6;59.9
77469;BME280;68840;50.272;12.818;2023-11-18T09:46:12;96791;;;6.6;60.9
77469;BME280;68840;50.272;12.818;2023-11-18T09:48:07;96791;;;6.6;60.1
77469;BME280;68840;50.272;12.818;2023-11-18T09:50:10;96786;;;6.6;60.6
77469;BME280;68840;50.272;12.818;2023-11-18T09:52:06;96784;;;6.6;61.2
77469;BME280;68840;50.272;12.818;2023-11-18T09:54:25;96785;;;6.6;60.7
77469;BME280;68840;50.272;12.818;2023-11-18T09:56:10;96788;;;6.6;60.5
77469;BME280;68840;50.272;12.818;2023-11-18T09:58:13;96790;;;6.6;60.4
77469;BME280;68840;50.272;12.818;2023-11-18T10:00:20;96792;;;6.6;60.5
77469;BME280;68840;50.272;12.818;2023-11-18T10:02:10;96792;;;6.6;60.5
77469;BME280;68840;50.272;12.818;2023-11-18T10:04:06;96793;;;6.7;61.0
77469;BME280;68840;50.272;12.818;2023-11-18T10:06:05;96796;;;6.7;61.1
77469;BME280;68840;50.272;12.818;2023-11-18T10:08:06;96801;;;6.8;60.6
77469;BME280;68840;50.272;12.818;2023-11-18T10:10:14;96805;;;6.8;60.3
77469;BME280;68840;50.272;12.818;2023-11-18T10:12:08;96805;;;6.9;60.9
77469;BME280;68840;50.272;12.818;2023-11-18T10:14:08;96807;;;6.9;59.7
77469;BME280;68840;50.272;12.818;2023-11-18T10:16:07;96810;;;6.9;60.3
77469;BME280;68840;50.272;12.818;2023-11-18T10:18:07;96809;;;6.9;59.8
77469;BME280;68840;50.272;12.818;2023-11-18T10:20:12;96806;;;6.9;60.2
77469;BME280;68840;50.272;12.818;2023-11-18T10:22:23;96801;;;6.9;60.1
77469;BME280;68840;50.272;12.818;2023-11-18T10:24:14;96802;;;6.9;60.7
77469;BME280;68840;50.272;12.818;2023-11-18T10:26:07;96800;;;7.0;61.0
77469;BME280;68840;50.272;12.818;2023-11-18T10:28:05;96798;;;7.0;60.6
77469;BME280;68840;50.272;12.818;2023-11-18T10:30:18;96796;;;7.1;59.8
77469;BME280;68840;50.272;12.818;2023-11-18T10:32:08;96793;;;7.1;59.1
77469;BME280;68840;50.272;12.818;2023-11-18T10:34:07;96791;;;7.2;61.0
77469;BME280;68840;50.272;12.818;2023-11-18T10:36:17;96785;;;7.2;59.5
77469;BME280;68840;50.272;12.818;2023-11-18T10:38:05;96779;;;7.3;59.5
77469;BME280;68840;50.272;12.818;2023-11-18T10:40:06;96779;;;7.3;59.4
77469;BME280;68840;50.272;12.818;2023-11-18T10:42:05;96775;;;7.4;61.5
77469;BME280;68840;50.272;12.818;2023-11-18T10:44:07;96769;;;7.4;61.7
77469;BME280;68840;50.272;12.818;2023-11-18T10:46:11;96763;;;7.5;59.9
77469;BME280;68840;50.272;12.818;2023-11-18T10:48:05;96760;;;7.6;60.1
77469;BME280;68840;50.272;12.818;2023-11-18T10:50:09;96756;;;7.6;59.6
77469;BME280;68840;50.272;12.818;2023-11-18T10:52:08;96756;;;7.7;59.4
77469;BME280;68840;50.272;12.818;2023-11-18T10:54:13;96756;;;7.7;58.1
77469;BME280;68840;50.272;12.818;2023-11-18T10:56:06;96754;;;7.8;59.1
77469;BME280;68840;50.272;12.818;2023-11-18T10:58:07;96751;;;7.8;57.8
77469;BME280;68840;50.272;12.818;2023-11-18T11:00:13;96750;;;7.8;57.2
77469;BME280;68840;50.272;12.818;2023-11-18T11:02:23;96751;;;7.8;57.0
77469;BME280;68840;50.272;12.818;2023-11-18T11:04:06;96749;;;7.8;58.2
77469;BME280;68840;50.272;12.818;2023-11-18T11:06:17;96748;;;7.8;57.4
77469;BME280;68840;50.272;12.818;2023-11-18T11:08:06;96752;;;7.8;57.5
77469;BME280;68840;50.272;12.818;2023-11-18T11:10:06;96753;;;7.7;58.2
77469;BME280;68840;50.272;12.818;2023-11-18T11:12:14;96751;;;7.7;58.5
77469;BME280;68840;50.272;12.818;2023-11-18T11:14:06;96751;;;7.7;58.0
77469;BME280;68840;50.272;12.818;2023-11-18T11:16:10;96749;;;7.7;57.4
77469;BME280;68840;50.272;12.818;2023-11-18T11:18:09;96749;;;7.7;58.2
77469;BME280;68840;50.272;12.818;2023-11-18T11:20:18;96749;;;7.7;58.3